sensor_id;sensor_type;location;lat;lon;timestamp;P1;durP1;ratioP1;P2;durP2;ratioP2
66272;SDS011;58450;52.150;4.466;2023-05-27T00:02:24;13.50;;;3.90;;
66272;SDS011;58450;52.150;4.466;2023-05-27T00:04:52;10.68;;;3.70;;
66272;SDS011;58450;52.150;4.466;2023-05-27T00:07:19;12.88;;;3.90;;
66272;SDS011;58450;52.150;4.466;2023-05-27T00:09:47;9.95;;;3.72;;
66272;SDS011;58450;52.150;4.466;2023-05-27T00:12:14;14.73;;;4.22;;
66272;SDS011;58450;52.150;4.466;2023-05-27T00:14:42;15.05;;;4.40;;
66272;SDS011;58450;52.150;4.466;2023-05-27T00:17:10;12.80;;;4.20;;
66272;SDS011;58450;52.150;4.466;2023-05-27T00:19:41;11.77;;;3.90;;
66272;SDS011;58450;52.150;4.466;2023-05-27T00:22:10;12.15;;;3.95;;
66272;SDS011;58450;52.150;4.466;2023-05-27T00:24:38;11.38;;;3.65;;
66272;SDS011;58450;52.150;4.466;2023-05-27T00:27:07;12.88;;;3.90;;
66272;SDS011;58450;52.150;4.466;2023-05-27T00:29:35;9.50;;;3.25;;
66272;SDS011;58450;52.150;4.466;2023-05-27T00:32:03;7.68;;;3.30;;
66272;SDS011;58450;52.150;4.466;2023-05-27T00:34:31;10.68;;;3.55;;
66272;SDS011;58450;52.150;4.466;2023-05-27T00:37:01;9.68;;;3.67;;
66272;SDS011;58450;52.150;4.466;2023-05-27T00:39:31;9.55;;;3.15;;
66272;SDS011;58450;52.150;4.466;2023-05-27T00:41:58;12.27;;;3.22;;
66272;SDS011;58450;52.150;4.466;2023-05-27T00:44:28;11.18;;;3.47;;
66272;SDS011;58450;52.150;4.466;2023-05-27T00:46:56;10.45;;;3.00;;
66272;SDS011;58450;52.150;4.466;2023-05-27T00:49:23;9.45;;;2.92;;
66272;SDS011;58450;52.150;4.466;2023-05-27T00:51:52;12.50;;;3.00;;
66272;SDS011;58450;52.150;4.466;2023-05-27T00:54:21;10.68;;;3.17;;
66272;SDS011;58450;52.150;4.466;2023-05-27T00:56:50;11.82;;;3.60;;
66272;SDS011;58450;52.150;4.466;2023-05-27T00:59:17;11.10;;;3.20;;
66272;SDS011;58450;52.150;4.466;2023-05-27T01:01:45;10.85;;;2.90;;
66272;SDS011;58450;52.150;4.466;2023-05-27T01:04:14;6.75;;;3.00;;
66272;SDS011;58450;52.150;4.466;2023-05-27T01:06:47;14.52;;;3.40;;
66272;SDS011;58450;52.150;4.466;2023-05-27T01:09:28;10.10;;;2.75;;
66272;SDS011;58450;52.150;4.466;2023-05-27T01:12:07;12.35;;;3.33;;
66272;SDS011;58450;52.150;4.466;2023-05-27T01:14:43;9.60;;;2.80;;
66272;SDS011;58450;52.150;4.466;2023-05-27T01:17:12;11.98;;;2.72;;
66272;SDS011;58450;52.150;4.466;2023-05-27T01:19:42;11.75;;;3.15;;
66272;SDS011;58450;52.150;4.466;2023-05-27T01:22:12;10.23;;;3.38;;
66272;SDS011;58450;52.150;4.466;2023-05-27T01:24:42;11.38;;;2.72;;
66272;SDS011;58450;52.150;4.466;2023-05-27T01:27:10;13.00;;;3.28;;
66272;SDS011;58450;52.150;4.466;2023-05-27T01:29:39;11.10;;;3.00;;
66272;SDS011;58450;52.150;4.466;2023-05-27T01:32:09;14.75;;;3.55;;
66272;SDS011;58450;52.150;4.466;2023-05-27T01:34:45;14.00;;;3.30;;
66272;SDS011;58450;52.150;4.466;2023-05-27T01:37:28;14.27;;;2.90;;
66272;SDS011;58450;52.150;4.466;2023-05-27T01:40:03;11.95;;;2.55;;
66272;SDS011;58450;52.150;4.466;2023-05-27T01:42:32;10.20;;;2.70;;
66272;SDS011;58450;52.150;4.466;2023-05-27T01:45:05;11.70;;;2.90;;
66272;SDS011;58450;52.150;4.466;2023-05-27T01:47:35;10.27;;;2.83;;
66272;SDS011;58450;52.150;4.466;2023-05-27T01:50:02;8.55;;;3.00;;
66272;SDS011;58450;52.150;4.466;2023-05-27T01:52:31;10.02;;;2.60;;
66272;SDS011;58450;52.150;4.466;2023-05-27T01:54:58;9.70;;;2.78;;
66272;SDS011;58450;52.150;4.466;2023-05-27T01:57:27;11.77;;;3.25;;
66272;SDS011;58450;52.150;4.466;2023-05-27T01:59:56;10.15;;;2.70;;
66272;SDS011;58450;52.150;4.466;2023-05-27T02:02:23;8.15;;;2.83;;
66272;SDS011;58450;52.150;4.466;2023-05-27T02:04:51;9.15;;;2.60;;
66272;SDS011;58450;52.150;4.466;2023-05-27T02:07:18;11.43;;;3.30;;
66272;SDS011;58450;52.150;4.466;2023-05-27T02:09:47;12.88;;;3.00;;
66272;SDS011;58450;52.150;4.466;2023-05-27T02:12:14;9.00;;;2.78;;
66272;SDS011;58450;52.150;4.466;2023-05-27T02:14:43;10.48;;;2.80;;
66272;SDS011;58450;52.150;4.466;2023-05-27T02:17:11;8.60;;;2.97;;
66272;SDS011;58450;52.150;4.466;2023-05-27T02:19:40;9.88;;;2.75;;
66272;SDS011;58450;52.150;4.466;2023-05-27T02:22:08;9.05;;;3.30;;
66272;SDS011;58450;52.150;4.466;2023-05-27T02:24:36;7.50;;;2.70;;
66272;SDS011;58450;52.150;4.466;2023-05-27T02:27:03;9.65;;;2.63;;
66272;SDS011;58450;52.150;4.466;2023-05-27T02:29:32;8.63;;;2.70;;
66272;SDS011;58450;52.150;4.466;2023-05-27T02:32:01;9.95;;;2.60;;
66272;SDS011;58450;52.150;4.466;2023-05-27T02:34:29;11.50;;;3.05;;
66272;SDS011;58450;52.150;4.466;2023-05-27T02:36:56;7.72;;;2.28;;
66272;SDS011;58450;52.150;4.466;2023-05-27T02:39:23;8.15;;;2.75;;
66272;SDS011;58450;52.150;4.466;2023-05-27T02:41:51;7.97;;;2.83;;
66272;SDS011;58450;52.150;4.466;2023-05-27T02:44:18;10.07;;;3.13;;
66272;SDS011;58450;52.150;4.466;2023-05-27T02:46:46;11.27;;;2.85;;
66272;SDS011;58450;52.150;4.466;2023-05-27T02:49:15;11.77;;;3.13;;
66272;SDS011;58450;52.150;4.466;2023-05-27T02:51:44;12.07;;;3.10;;
66272;SDS011;58450;52.150;4.466;2023-05-27T02:54:11;12.73;;;2.78;;
66272;SDS011;58450;52.150;4.466;2023-05-27T02:56:39;8.52;;;2.83;;
66272;SDS011;58450;52.150;4.466;2023-05-27T02:59:06;9.85;;;3.13;;
66272;SDS011;58450;52.150;4.466;2023-05-27T03:01:33;10.85;;;2.88;;
66272;SDS011;58450;52.150;4.466;2023-05-27T03:04:01;11.00;;;2.95;;
66272;SDS011;58450;52.150;4.466;2023-05-27T03:06:30;11.25;;;3.28;;
66272;SDS011;58450;52.150;4.466;2023-05-27T03:08:58;11.25;;;3.03;;
66272;SDS011;58450;52.150;4.466;2023-05-27T03:11:26;9.80;;;2.95;;
66272;SDS011;58450;52.150;4.466;2023-05-27T03:13:54;9.02;;;2.78;;
66272;SDS011;58450;52.150;4.466;2023-05-27T03:16:21;12.40;;;3.30;;
66272;SDS011;58450;52.150;4.466;2023-05-27T03:18:50;9.00;;;2.85;;
66272;SDS011;58450;52.150;4.466;2023-05-27T03:21:18;10.57;;;3.40;;
66272;SDS011;58450;52.150;4.466;2023-05-27T03:23:46;8.35;;;2.60;;
66272;SDS011;58450;52.150;4.466;2023-05-27T03:26:14;10.02;;;3.00;;
66272;SDS011;58450;52.150;4.466;2023-05-27T03:28:41;10.35;;;3.00;;
66272;SDS011;58450;52.150;4.466;2023-05-27T03:31:09;8.82;;;2.70;;
66272;SDS011;58450;52.150;4.466;2023-05-27T03:33:38;9.25;;;3.15;;
66272;SDS011;58450;52.150;4.466;2023-05-27T03:36:06;11.85;;;3.13;;
66272;SDS011;58450;52.150;4.466;2023-05-27T03:38:34;10.65;;;3.30;;
66272;SDS011;58450;52.150;4.466;2023-05-27T03:41:03;11.75;;;3.28;;
66272;SDS011;58450;52.150;4.466;2023-05-27T03:43:30;9.15;;;2.80;;
66272;SDS011;58450;52.150;4.466;2023-05-27T03:45:58;7.93;;;2.60;;
66272;SDS011;58450;52.150;4.466;2023-05-27T03:48:25;11.60;;;3.28;;
66272;SDS011;58450;52.150;4.466;2023-05-27T03:50:53;10.45;;;3.35;;
66272;SDS011;58450;52.150;4.466;2023-05-27T03:53:20;8.90;;;3.00;;
66272;SDS011;58450;52.150;4.466;2023-05-27T03:55:48;11.65;;;3.50;;
66272;SDS011;58450;52.150;4.466;2023-05-27T03:58:17;9.32;;;3.15;;
66272;SDS011;58450;52.150;4.466;2023-05-27T04:00:44;9.88;;;3.35;;
66272;SDS011;58450;52.150;4.466;2023-05-27T04:03:13;9.82;;;3.33;;
66272;SDS011;58450;52.150;4.466;2023-05-27T04:05:41;8.88;;;2.70;;
66272;SDS011;58450;52.150;4.466;2023-05-27T04:08:08;8.55;;;2.88;;
66272;SDS011;58450;52.150;4.466;2023-05-27T04:10:38;10.57;;;3.13;;
66272;SDS011;58450;52.150;4.466;2023-05-27T04:13:06;10.77;;;2.83;;
66272;SDS011;58450;52.150;4.466;2023-05-27T04:15:35;10.90;;;2.92;;
66272;SDS011;58450;52.150;4.466;2023-05-27T04:18:02;10.35;;;2.75;;
66272;SDS011;58450;52.150;4.466;2023-05-27T04:20:34;11.93;;;3.38;;
66272;SDS011;58450;52.150;4.466;2023-05-27T04:23:05;8.93;;;3.00;;
66272;SDS011;58450;52.150;4.466;2023-05-27T04:25:32;9.98;;;3.00;;
66272;SDS011;58450;52.150;4.466;2023-05-27T04:28:01;9.38;;;3.17;;
66272;SDS011;58450;52.150;4.466;2023-05-27T04:30:30;12.27;;;2.92;;
66272;SDS011;58450;52.150;4.466;2023-05-27T04:33:00;8.88;;;2.80;;
66272;SDS011;58450;52.150;4.466;2023-05-27T04:35:27;15.95;;;3.70;;
66272;SDS011;58450;52.150;4.466;2023-05-27T04:37:56;10.48;;;3.25;;
66272;SDS011;58450;52.150;4.466;2023-05-27T04:40:26;12.05;;;3.00;;
66272;SDS011;58450;52.150;4.466;2023-05-27T04:42:55;10.32;;;2.88;;
66272;SDS011;58450;52.150;4.466;2023-05-27T04:45:23;9.80;;;3.22;;
66272;SDS011;58450;52.150;4.466;2023-05-27T04:47:50;9.07;;;3.15;;
66272;SDS011;58450;52.150;4.466;2023-05-27T04:50:19;12.65;;;3.05;;
66272;SDS011;58450;52.150;4.466;2023-05-27T04:52:48;9.15;;;3.00;;
66272;SDS011;58450;52.150;4.466;2023-05-27T04:55:15;11.73;;;3.00;;
66272;SDS011;58450;52.150;4.466;2023-05-27T04:57:43;12.43;;;3.20;;
66272;SDS011;58450;52.150;4.466;2023-05-27T05:00:11;11.55;;;3.28;;
66272;SDS011;58450;52.150;4.466;2023-05-27T05:02:48;10.15;;;3.33;;
66272;SDS011;58450;52.150;4.466;2023-05-27T05:05:27;9.63;;;3.05;;
66272;SDS011;58450;52.150;4.466;2023-05-27T05:07:55;9.93;;;3.13;;
66272;SDS011;58450;52.150;4.466;2023-05-27T05:10:23;9.15;;;2.83;;
66272;SDS011;58450;52.150;4.466;2023-05-27T05:12:51;10.63;;;3.30;;
66272;SDS011;58450;52.150;4.466;2023-05-27T05:15:18;12.05;;;3.50;;
66272;SDS011;58450;52.150;4.466;2023-05-27T05:17:46;14.00;;;3.63;;
66272;SDS011;58450;52.150;4.466;2023-05-27T05:20:13;12.43;;;3.55;;
66272;SDS011;58450;52.150;4.466;2023-05-27T05:22:42;12.15;;;3.40;;
66272;SDS011;58450;52.150;4.466;2023-05-27T05:25:10;12.93;;;3.03;;
66272;SDS011;58450;52.150;4.466;2023-05-27T05:27:37;12.30;;;3.38;;
66272;SDS011;58450;52.150;4.466;2023-05-27T05:30:06;10.82;;;3.05;;
66272;SDS011;58450;52.150;4.466;2023-05-27T05:32:35;9.70;;;3.05;;
66272;SDS011;58450;52.150;4.466;2023-05-27T05:35:02;12.73;;;3.40;;
66272;SDS011;58450;52.150;4.466;2023-05-27T05:37:31;15.18;;;3.88;;
66272;SDS011;58450;52.150;4.466;2023-05-27T05:39:59;11.50;;;3.53;;
66272;SDS011;58450;52.150;4.466;2023-05-27T05:42:27;12.45;;;3.00;;
66272;SDS011;58450;52.150;4.466;2023-05-27T05:44:55;11.40;;;3.13;;
66272;SDS011;58450;52.150;4.466;2023-05-27T05:47:23;9.82;;;3.13;;
66272;SDS011;58450;52.150;4.466;2023-05-27T05:49:50;9.45;;;3.40;;
66272;SDS011;58450;52.150;4.466;2023-05-27T05:52:17;9.50;;;2.90;;
66272;SDS011;58450;52.150;4.466;2023-05-27T05:54:45;9.82;;;3.20;;
66272;SDS011;58450;52.150;4.466;2023-05-27T05:57:14;15.00;;;3.33;;
66272;SDS011;58450;52.150;4.466;2023-05-27T05:59:42;12.13;;;3.22;;
66272;SDS011;58450;52.150;4.466;2023-05-27T06:02:09;9.57;;;3.00;;
66272;SDS011;58450;52.150;4.466;2023-05-27T06:04:37;10.80;;;3.00;;
66272;SDS011;58450;52.150;4.466;2023-05-27T06:07:04;10.93;;;3.30;;
66272;SDS011;58450;52.150;4.466;2023-05-27T06:09:32;9.95;;;3.15;;
66272;SDS011;58450;52.150;4.466;2023-05-27T06:11:59;12.65;;;3.22;;
66272;SDS011;58450;52.150;4.466;2023-05-27T06:14:28;14.23;;;3.45;;
66272;SDS011;58450;52.150;4.466;2023-05-27T06:16:55;11.38;;;2.95;;
66272;SDS011;58450;52.150;4.466;2023-05-27T06:19:23;9.20;;;2.80;;
66272;SDS011;58450;52.150;4.466;2023-05-27T06:21:50;9.73;;;2.90;;
66272;SDS011;58450;52.150;4.466;2023-05-27T06:24:18;8.35;;;2.70;;
66272;SDS011;58450;52.150;4.466;2023-05-27T06:26:46;10.32;;;3.05;;
66272;SDS011;58450;52.150;4.466;2023-05-27T06:29:15;12.25;;;2.67;;
66272;SDS011;58450;52.150;4.466;2023-05-27T06:31:45;10.88;;;3.08;;
66272;SDS011;58450;52.150;4.466;2023-05-27T06:34:15;8.95;;;3.00;;
66272;SDS011;58450;52.150;4.466;2023-05-27T06:36:43;9.32;;;2.75;;
66272;SDS011;58450;52.150;4.466;2023-05-27T06:39:14;10.02;;;2.95;;
66272;SDS011;58450;52.150;4.466;2023-05-27T06:41:42;11.20;;;3.00;;
66272;SDS011;58450;52.150;4.466;2023-05-27T06:44:09;8.23;;;2.60;;
66272;SDS011;58450;52.150;4.466;2023-05-27T06:46:37;6.07;;;2.15;;
66272;SDS011;58450;52.150;4.466;2023-05-27T06:49:06;10.07;;;2.50;;
66272;SDS011;58450;52.150;4.466;2023-05-27T06:51:33;7.43;;;2.72;;
66272;SDS011;58450;52.150;4.466;2023-05-27T06:54:01;10.95;;;2.90;;
66272;SDS011;58450;52.150;4.466;2023-05-27T06:56:29;8.68;;;2.70;;
66272;SDS011;58450;52.150;4.466;2023-05-27T06:58:57;8.25;;;2.70;;
66272;SDS011;58450;52.150;4.466;2023-05-27T07:01:24;7.63;;;2.35;;
66272;SDS011;58450;52.150;4.466;2023-05-27T07:03:52;10.93;;;2.80;;
66272;SDS011;58450;52.150;4.466;2023-05-27T07:06:21;8.35;;;2.60;;
66272;SDS011;58450;52.150;4.466;2023-05-27T07:08:48;10.63;;;2.78;;
66272;SDS011;58450;52.150;4.466;2023-05-27T07:11:16;9.98;;;3.08;;
66272;SDS011;58450;52.150;4.466;2023-05-27T07:13:44;8.25;;;2.63;;
66272;SDS011;58450;52.150;4.466;2023-05-27T07:16:11;8.13;;;2.58;;
66272;SDS011;58450;52.150;4.466;2023-05-27T07:18:39;12.20;;;2.70;;
66272;SDS011;58450;52.150;4.466;2023-05-27T07:21:06;9.18;;;2.47;;
66272;SDS011;58450;52.150;4.466;2023-05-27T07:23:35;9.25;;;2.47;;
66272;SDS011;58450;52.150;4.466;2023-05-27T07:26:03;9.18;;;2.33;;
66272;SDS011;58450;52.150;4.466;2023-05-27T07:28:30;9.02;;;2.65;;
66272;SDS011;58450;52.150;4.466;2023-05-27T07:30:59;8.50;;;2.42;;
66272;SDS011;58450;52.150;4.466;2023-05-27T07:33:26;7.70;;;2.58;;
66272;SDS011;58450;52.150;4.466;2023-05-27T07:35:54;7.63;;;2.40;;
66272;SDS011;58450;52.150;4.466;2023-05-27T07:38:21;7.45;;;2.50;;
66272;SDS011;58450;52.150;4.466;2023-05-27T07:40:50;11.00;;;2.80;;
66272;SDS011;58450;52.150;4.466;2023-05-27T07:43:17;8.27;;;2.80;;
66272;SDS011;58450;52.150;4.466;2023-05-27T07:45:45;10.65;;;2.97;;
66272;SDS011;58450;52.150;4.466;2023-05-27T07:48:12;9.95;;;2.72;;
66272;SDS011;58450;52.150;4.466;2023-05-27T07:50:40;7.82;;;2.33;;
66272;SDS011;58450;52.150;4.466;2023-05-27T07:53:08;10.48;;;2.85;;
66272;SDS011;58450;52.150;4.466;2023-05-27T07:55:36;8.52;;;2.72;;
66272;SDS011;58450;52.150;4.466;2023-05-27T07:58:05;8.35;;;2.72;;
66272;SDS011;58450;52.150;4.466;2023-05-27T08:00:32;9.05;;;2.42;;
66272;SDS011;58450;52.150;4.466;2023-05-27T08:03:00;4.85;;;2.08;;
66272;SDS011;58450;52.150;4.466;2023-05-27T08:05:27;7.75;;;2.40;;
66272;SDS011;58450;52.150;4.466;2023-05-27T08:07:55;8.27;;;2.60;;
66272;SDS011;58450;52.150;4.466;2023-05-27T08:10:22;9.52;;;2.67;;
66272;SDS011;58450;52.150;4.466;2023-05-27T08:12:50;9.20;;;2.80;;
66272;SDS011;58450;52.150;4.466;2023-05-27T08:15:18;6.30;;;2.40;;
66272;SDS011;58450;52.150;4.466;2023-05-27T08:17:46;7.20;;;2.53;;
66272;SDS011;58450;52.150;4.466;2023-05-27T08:20:13;9.63;;;2.60;;
66272;SDS011;58450;52.150;4.466;2023-05-27T08:22:41;7.55;;;2.47;;
66272;SDS011;58450;52.150;4.466;2023-05-27T08:25:09;7.35;;;2.22;;
66272;SDS011;58450;52.150;4.466;2023-05-27T08:27:43;7.65;;;2.47;;
66272;SDS011;58450;52.150;4.466;2023-05-27T08:30:13;9.40;;;2.67;;
66272;SDS011;58450;52.150;4.466;2023-05-27T08:32:42;7.72;;;2.63;;
66272;SDS011;58450;52.150;4.466;2023-05-27T08:35:11;7.13;;;2.38;;
66272;SDS011;58450;52.150;4.466;2023-05-27T08:37:39;9.52;;;2.50;;
66272;SDS011;58450;52.150;4.466;2023-05-27T08:40:10;8.00;;;2.40;;
66272;SDS011;58450;52.150;4.466;2023-05-27T08:42:41;6.95;;;2.00;;
66272;SDS011;58450;52.150;4.466;2023-05-27T08:45:10;6.35;;;2.08;;
66272;SDS011;58450;52.150;4.466;2023-05-27T08:47:38;6.03;;;2.30;;
66272;SDS011;58450;52.150;4.466;2023-05-27T08:50:08;9.15;;;2.50;;
66272;SDS011;58450;52.150;4.466;2023-05-27T08:52:38;6.53;;;2.40;;
66272;SDS011;58450;52.150;4.466;2023-05-27T08:55:14;7.18;;;2.42;;
66272;SDS011;58450;52.150;4.466;2023-05-27T08:57:44;8.38;;;2.30;;
66272;SDS011;58450;52.150;4.466;2023-05-27T09:02:45;10.20;;;2.65;;
66272;SDS011;58450;52.150;4.466;2023-05-27T09:05:14;6.18;;;2.10;;
66272;SDS011;58450;52.150;4.466;2023-05-27T09:07:43;7.72;;;2.50;;
66272;SDS011;58450;52.150;4.466;2023-05-27T09:10:11;7.72;;;2.67;;
66272;SDS011;58450;52.150;4.466;2023-05-27T09:12:41;6.38;;;2.17;;
66272;SDS011;58450;52.150;4.466;2023-05-27T09:15:11;7.30;;;2.50;;
66272;SDS011;58450;52.150;4.466;2023-05-27T09:17:39;7.40;;;2.30;;
66272;SDS011;58450;52.150;4.466;2023-05-27T09:20:09;7.47;;;2.25;;
66272;SDS011;58450;52.150;4.466;2023-05-27T09:22:39;7.82;;;2.33;;
66272;SDS011;58450;52.150;4.466;2023-05-27T09:25:08;7.10;;;2.15;;
66272;SDS011;58450;52.150;4.466;2023-05-27T09:27:36;8.48;;;2.60;;
66272;SDS011;58450;52.150;4.466;2023-05-27T09:30:07;7.15;;;2.42;;
66272;SDS011;58450;52.150;4.466;2023-05-27T09:32:36;9.40;;;2.67;;
66272;SDS011;58450;52.150;4.466;2023-05-27T09:35:05;7.35;;;2.55;;
66272;SDS011;58450;52.150;4.466;2023-05-27T09:37:34;8.85;;;2.70;;
66272;SDS011;58450;52.150;4.466;2023-05-27T09:40:06;8.23;;;2.40;;
66272;SDS011;58450;52.150;4.466;2023-05-27T09:42:42;6.70;;;2.30;;
66272;SDS011;58450;52.150;4.466;2023-05-27T09:45:11;7.65;;;2.78;;
66272;SDS011;58450;52.150;4.466;2023-05-27T09:47:41;9.23;;;2.47;;
66272;SDS011;58450;52.150;4.466;2023-05-27T09:52:43;8.52;;;2.50;;
66272;SDS011;58450;52.150;4.466;2023-05-27T09:55:14;7.93;;;2.50;;
66272;SDS011;58450;52.150;4.466;2023-05-27T09:57:43;8.52;;;2.65;;
66272;SDS011;58450;52.150;4.466;2023-05-27T10:00:11;6.70;;;2.38;;
66272;SDS011;58450;52.150;4.466;2023-05-27T10:02:42;10.68;;;2.63;;
66272;SDS011;58450;52.150;4.466;2023-05-27T10:05:13;5.50;;;2.30;;
66272;SDS011;58450;52.150;4.466;2023-05-27T10:07:43;6.93;;;2.47;;
66272;SDS011;58450;52.150;4.466;2023-05-27T10:10:14;7.97;;;2.85;;
66272;SDS011;58450;52.150;4.466;2023-05-27T10:12:47;8.30;;;2.60;;
66272;SDS011;58450;52.150;4.466;2023-05-27T10:15:23;6.80;;;2.40;;
66272;SDS011;58450;52.150;4.466;2023-05-27T10:17:53;8.98;;;2.80;;
66272;SDS011;58450;52.150;4.466;2023-05-27T10:20:29;7.38;;;2.53;;
66272;SDS011;58450;52.150;4.466;2023-05-27T10:23:08;7.00;;;2.88;;
66272;SDS011;58450;52.150;4.466;2023-05-27T10:25:40;9.15;;;3.72;;
66272;SDS011;58450;52.150;4.466;2023-05-27T10:28:22;7.95;;;3.03;;
66272;SDS011;58450;52.150;4.466;2023-05-27T10:31:02;7.90;;;2.90;;
66272;SDS011;58450;52.150;4.466;2023-05-27T10:33:33;10.25;;;3.00;;
66272;SDS011;58450;52.150;4.466;2023-05-27T10:36:03;8.80;;;2.75;;
66272;SDS011;58450;52.150;4.466;2023-05-27T10:38:34;8.32;;;2.60;;
66272;SDS011;58450;52.150;4.466;2023-05-27T10:41:04;9.23;;;2.60;;
66272;SDS011;58450;52.150;4.466;2023-05-27T10:43:33;7.38;;;2.60;;
66272;SDS011;58450;52.150;4.466;2023-05-27T10:46:03;7.97;;;2.75;;
66272;SDS011;58450;52.150;4.466;2023-05-27T10:48:33;10.50;;;3.00;;
66272;SDS011;58450;52.150;4.466;2023-05-27T10:51:02;8.65;;;2.83;;
66272;SDS011;58450;52.150;4.466;2023-05-27T10:53:31;7.60;;;2.60;;
66272;SDS011;58450;52.150;4.466;2023-05-27T10:55:59;7.22;;;2.58;;
66272;SDS011;58450;52.150;4.466;2023-05-27T10:58:28;7.90;;;2.60;;
66272;SDS011;58450;52.150;4.466;2023-05-27T11:00:56;8.05;;;2.60;;
66272;SDS011;58450;52.150;4.466;2023-05-27T11:03:24;8.18;;;2.65;;
66272;SDS011;58450;52.150;4.466;2023-05-27T11:06:00;7.93;;;2.63;;
66272;SDS011;58450;52.150;4.466;2023-05-27T11:08:28;10.35;;;2.80;;
66272;SDS011;58450;52.150;4.466;2023-05-27T11:11:00;10.10;;;2.90;;
66272;SDS011;58450;52.150;4.466;2023-05-27T11:13:30;7.60;;;2.60;;
66272;SDS011;58450;52.150;4.466;2023-05-27T11:16:00;8.10;;;2.70;;
66272;SDS011;58450;52.150;4.466;2023-05-27T11:18:36;7.00;;;2.50;;
66272;SDS011;58450;52.150;4.466;2023-05-27T11:21:04;11.43;;;2.67;;
66272;SDS011;58450;52.150;4.466;2023-05-27T11:23:34;8.23;;;2.88;;
66272;SDS011;58450;52.150;4.466;2023-05-27T11:26:10;7.45;;;2.38;;
66272;SDS011;58450;52.150;4.466;2023-05-27T11:28:46;7.97;;;2.70;;
66272;SDS011;58450;52.150;4.466;2023-05-27T11:31:19;9.45;;;2.72;;
66272;SDS011;58450;52.150;4.466;2023-05-27T11:33:49;9.27;;;2.80;;
66272;SDS011;58450;52.150;4.466;2023-05-27T11:36:18;9.93;;;3.03;;
66272;SDS011;58450;52.150;4.466;2023-05-27T11:38:50;9.90;;;2.85;;
66272;SDS011;58450;52.150;4.466;2023-05-27T11:41:21;6.95;;;2.60;;
66272;SDS011;58450;52.150;4.466;2023-05-27T11:43:54;7.63;;;2.70;;
66272;SDS011;58450;52.150;4.466;2023-05-27T11:46:23;8.70;;;2.83;;
66272;SDS011;58450;52.150;4.466;2023-05-27T11:49:00;8.30;;;2.50;;
66272;SDS011;58450;52.150;4.466;2023-05-27T11:51:29;11.40;;;2.85;;
66272;SDS011;58450;52.150;4.466;2023-05-27T11:53:58;9.57;;;2.97;;
66272;SDS011;58450;52.150;4.466;2023-05-27T11:56:26;6.88;;;2.88;;
66272;SDS011;58450;52.150;4.466;2023-05-27T11:58:56;8.48;;;2.72;;
66272;SDS011;58450;52.150;4.466;2023-05-27T12:01:25;9.73;;;2.92;;
66272;SDS011;58450;52.150;4.466;2023-05-27T12:03:52;8.65;;;2.80;;
66272;SDS011;58450;52.150;4.466;2023-05-27T12:06:20;7.57;;;2.75;;
66272;SDS011;58450;52.150;4.466;2023-05-27T12:08:47;8.02;;;2.58;;
66272;SDS011;58450;52.150;4.466;2023-05-27T12:11:15;10.45;;;3.00;;
66272;SDS011;58450;52.150;4.466;2023-05-27T12:13:43;6.30;;;2.50;;
66272;SDS011;58450;52.150;4.466;2023-05-27T12:16:11;5.88;;;2.38;;
66272;SDS011;58450;52.150;4.466;2023-05-27T12:18:39;10.02;;;2.78;;
66272;SDS011;58450;52.150;4.466;2023-05-27T12:21:07;7.97;;;2.95;;
66272;SDS011;58450;52.150;4.466;2023-05-27T12:23:35;9.63;;;2.80;;
66272;SDS011;58450;52.150;4.466;2023-05-27T12:26:02;9.23;;;2.92;;
66272;SDS011;58450;52.150;4.466;2023-05-27T12:28:30;9.18;;;3.08;;
66272;SDS011;58450;52.150;4.466;2023-05-27T12:30:57;8.85;;;2.55;;
66272;SDS011;58450;52.150;4.466;2023-05-27T12:33:27;8.07;;;3.00;;
66272;SDS011;58450;52.150;4.466;2023-05-27T12:35:55;9.25;;;3.05;;
66272;SDS011;58450;52.150;4.466;2023-05-27T12:38:23;8.95;;;2.97;;
66272;SDS011;58450;52.150;4.466;2023-05-27T12:40:50;8.88;;;2.72;;
66272;SDS011;58450;52.150;4.466;2023-05-27T12:43:18;8.32;;;2.92;;
66272;SDS011;58450;52.150;4.466;2023-05-27T12:45:46;10.70;;;3.15;;
66272;SDS011;58450;52.150;4.466;2023-05-27T12:48:14;7.93;;;2.63;;
66272;SDS011;58450;52.150;4.466;2023-05-27T12:50:44;7.13;;;2.60;;
66272;SDS011;58450;52.150;4.466;2023-05-27T12:53:12;10.02;;;2.88;;
66272;SDS011;58450;52.150;4.466;2023-05-27T12:55:39;8.43;;;3.15;;
66272;SDS011;58450;52.150;4.466;2023-05-27T12:58:09;9.98;;;2.97;;
66272;SDS011;58450;52.150;4.466;2023-05-27T13:00:37;9.02;;;3.00;;
66272;SDS011;58450;52.150;4.466;2023-05-27T13:03:04;9.25;;;2.92;;
66272;SDS011;58450;52.150;4.466;2023-05-27T13:05:32;10.35;;;2.90;;
66272;SDS011;58450;52.150;4.466;2023-05-27T13:08:02;8.80;;;3.08;;
66272;SDS011;58450;52.150;4.466;2023-05-27T13:10:31;8.75;;;2.95;;
66272;SDS011;58450;52.150;4.466;2023-05-27T13:12:59;10.48;;;3.00;;
66272;SDS011;58450;52.150;4.466;2023-05-27T13:15:28;7.95;;;2.63;;
66272;SDS011;58450;52.150;4.466;2023-05-27T13:17:57;11.52;;;3.17;;
66272;SDS011;58450;52.150;4.466;2023-05-27T13:20:25;8.10;;;2.33;;
66272;SDS011;58450;52.150;4.466;2023-05-27T13:22:55;7.45;;;2.40;;
66272;SDS011;58450;52.150;4.466;2023-05-27T13:25:27;8.02;;;2.60;;
66272;SDS011;58450;52.150;4.466;2023-05-27T13:27:56;8.20;;;2.90;;
66272;SDS011;58450;52.150;4.466;2023-05-27T13:30:24;9.10;;;2.75;;
66272;SDS011;58450;52.150;4.466;2023-05-27T13:32:52;9.40;;;3.28;;
66272;SDS011;58450;52.150;4.466;2023-05-27T13:35:20;11.15;;;3.00;;
66272;SDS011;58450;52.150;4.466;2023-05-27T13:37:48;6.85;;;2.60;;
66272;SDS011;58450;52.150;4.466;2023-05-27T13:40:15;7.18;;;2.58;;
66272;SDS011;58450;52.150;4.466;2023-05-27T13:42:45;9.15;;;2.90;;
66272;SDS011;58450;52.150;4.466;2023-05-27T13:45:13;7.78;;;2.72;;
66272;SDS011;58450;52.150;4.466;2023-05-27T13:47:40;7.68;;;2.80;;
66272;SDS011;58450;52.150;4.466;2023-05-27T13:50:10;9.30;;;2.55;;
66272;SDS011;58450;52.150;4.466;2023-05-27T13:52:37;7.32;;;2.70;;
66272;SDS011;58450;52.150;4.466;2023-05-27T13:55:06;8.57;;;2.70;;
66272;SDS011;58450;52.150;4.466;2023-05-27T13:57:34;7.80;;;2.78;;
66272;SDS011;58450;52.150;4.466;2023-05-27T14:00:03;8.45;;;2.95;;
66272;SDS011;58450;52.150;4.466;2023-05-27T14:02:32;9.73;;;3.28;;
66272;SDS011;58450;52.150;4.466;2023-05-27T14:05:00;7.57;;;3.00;;
66272;SDS011;58450;52.150;4.466;2023-05-27T14:07:28;9.45;;;2.60;;
66272;SDS011;58450;52.150;4.466;2023-05-27T14:09:55;8.07;;;2.75;;
66272;SDS011;58450;52.150;4.466;2023-05-27T14:12:23;8.27;;;2.80;;
66272;SDS011;58450;52.150;4.466;2023-05-27T14:14:51;8.48;;;3.40;;
66272;SDS011;58450;52.150;4.466;2023-05-27T14:17:20;8.18;;;2.90;;
66272;SDS011;58450;52.150;4.466;2023-05-27T14:19:47;10.00;;;3.17;;
66272;SDS011;58450;52.150;4.466;2023-05-27T14:22:15;7.60;;;2.97;;
66272;SDS011;58450;52.150;4.466;2023-05-27T14:24:43;7.97;;;2.80;;
66272;SDS011;58450;52.150;4.466;2023-05-27T14:27:11;6.70;;;2.70;;
66272;SDS011;58450;52.150;4.466;2023-05-27T14:29:38;8.35;;;3.30;;
66272;SDS011;58450;52.150;4.466;2023-05-27T14:32:06;8.32;;;3.10;;
66272;SDS011;58450;52.150;4.466;2023-05-27T14:34:35;8.75;;;2.97;;
66272;SDS011;58450;52.150;4.466;2023-05-27T14:37:03;9.15;;;3.03;;
66272;SDS011;58450;52.150;4.466;2023-05-27T14:39:31;8.57;;;2.85;;
66272;SDS011;58450;52.150;4.466;2023-05-27T14:41:58;8.75;;;3.50;;
66272;SDS011;58450;52.150;4.466;2023-05-27T14:44:26;9.85;;;3.50;;
66272;SDS011;58450;52.150;4.466;2023-05-27T14:46:54;8.27;;;3.30;;
66272;SDS011;58450;52.150;4.466;2023-05-27T14:49:21;8.30;;;2.97;;
66272;SDS011;58450;52.150;4.466;2023-05-27T14:51:50;10.88;;;3.55;;
66272;SDS011;58450;52.150;4.466;2023-05-27T14:54:17;10.70;;;3.35;;
66272;SDS011;58450;52.150;4.466;2023-05-27T14:56:45;9.80;;;3.00;;
66272;SDS011;58450;52.150;4.466;2023-05-27T14:59:13;8.45;;;3.05;;